Time;durP1;ratioP1;P1;durP2;ratioP2;P2;SDS_P1;SDS_P2;PMS_P1;PMS_P2;Temp;Humidity;BMP_temperature;BMP_pressure;BME280_temperature;BME280_humidity;BME280_pressure;Samples;Min_cycle;Max_cycle;Signal;HPM_P1;HPM_P2
2023/05/24 00:01:01;;;;;;;17.53;8.33;;;16.20;99.90;15.60;100200;;;;572556;246;24178;-77
2023/05/24 00:03:33;;;;;;;18.70;9.37;;;16.40;99.90;15.60;100202;;;;581726;246;24081;-79
2023/05/24 00:05:58;;;;;;;20.77;8.47;;;15.90;99.90;15.50;100213;;;;572675;246;24119;-78
2023/05/24 00:08:29;;;;;;;15.53;8.43;;;16.10;99.90;15.50;100210;;;;572637;246;24084;-79
2023/05/24 00:10:54;;;;;;;12.33;7.77;;;16.00;99.90;15.50;100212;;;;570028;246;24093;-78
2023/05/24 00:13:22;;;;;;;20.70;7.53;;;16.10;99.90;15.50;100215;;;;570471;246;24154;-79
2023/05/24 00:15:51;;;;;;;23.33;8.77;;;16.10;99.90;15.50;100207;;;;572703;246;24079;-79
2023/05/24 00:18:20;;;;;;;15.80;7.60;;;16.10;99.90;15.50;100212;;;;572398;246;24224;-78
2023/05/24 00:20:47;;;;;;;15.73;7.73;;;16.30;99.90;15.40;100201;;;;572063;247;24078;-79
2023/05/24 00:23:16;;;;;;;15.67;8.00;;;16.00;99.90;15.40;100200;;;;572162;247;24123;-79
2023/05/24 00:25:45;;;;;;;16.30;7.57;;;16.00;99.90;15.40;100194;;;;572169;247;24094;-79
2023/05/24 00:28:14;;;;;;;13.67;7.50;;;16.00;99.90;15.40;100193;;;;572438;247;24157;-79
2023/05/24 00:30:42;;;;;;;11.90;7.13;;;16.00;99.90;15.40;100190;;;;572532;247;24115;-78
2023/05/24 00:33:11;;;;;;;17.97;8.77;;;16.00;99.90;15.30;100182;;;;572533;247;24108;-78
2023/05/24 00:35:38;;;;;;;20.47;8.80;;;15.80;99.90;15.30;100182;;;;580878;247;24097;-78
2023/05/24 00:38:07;;;;;;;18.50;8.07;;;15.90;99.90;15.20;100183;;;;571782;247;24130;-80
2023/05/24 00:40:37;;;;;;;17.80;8.07;;;15.70;99.90;15.20;100177;;;;571971;247;24067;-80
2023/05/24 00:43:03;;;;;;;16.07;8.63;;;15.90;99.90;15.20;100182;;;;571682;247;24128;-79
2023/05/24 00:45:31;;;;;;;17.23;8.27;;;16.10;99.90;15.10;100183;;;;572054;247;24076;-79
2023/05/24 00:48:02;;;;;;;18.97;8.23;;;15.90;99.90;15.10;100185;;;;571861;247;24072;-78
2023/05/24 00:50:27;;;;;;;19.60;8.63;;;15.70;99.90;15.10;100202;;;;570218;247;24106;-79
2023/05/24 00:52:56;;;;;;;12.93;7.30;;;15.80;99.90;15.10;100198;;;;577078;247;24182;-79
2023/05/24 00:55:24;;;;;;;12.73;7.00;;;16.10;99.90;15.10;100189;;;;571697;247;24208;-79
2023/05/24 00:57:53;;;;;;;20.93;8.73;;;15.70;99.90;15.10;100190;;;;572129;247;24127;-80
2023/05/24 01:00:23;;;;;;;14.80;7.60;;;15.90;99.90;15.10;100191;;;;580473;242;24097;-80
2023/05/24 01:02:48;;;;;;;16.30;7.50;;;15.80;99.90;15.10;100191;;;;569956;247;24097;-80
2023/05/24 01:05:20;;;;;;;18.83;8.33;;;15.80;99.90;15.10;100189;;;;571840;246;24093;-80
2023/05/24 01:07:56;;;;;;;10.37;6.97;;;15.80;99.90;15.10;100187;;;;579968;247;24225;-80
2023/05/24 01:10:40;;;;;;;24.27;9.67;;;15.70;99.90;15.10;100185;;;;580195;243;24119;-80
2023/05/24 01:13:30;;;;;;;11.10;7.63;;;15.70;99.90;15.10;100184;;;;581547;245;24118;-78
2023/05/24 01:16:22;;;;;;;17.53;8.30;;;15.70;99.90;15.10;100180;;;;581347;246;24097;-78
2023/05/24 01:18:50;;;;;;;21.07;9.53;;;15.40;99.90;15.00;100174;;;;580521;246;24102;-77
2023/05/24 01:21:49;;;;;;;16.87;8.33;;;16.00;99.90;15.00;100180;;;;581199;246;24130;-79
2023/05/24 01:25:03;;;;;;;11.90;6.87;;;15.50;99.90;15.00;100180;;;;572765;246;24093;-78
2023/05/24 01:27:33;;;;;;;10.77;6.20;;;16.60;99.90;15.00;100180;;;;572789;246;24126;-79
2023/05/24 01:30:03;;;;;;;20.37;7.83;;;15.70;99.90;15.00;100175;;;;572338;247;24084;-77
2023/05/24 01:32:30;;;;;;;9.80;6.13;;;15.60;99.90;15.10;100180;;;;580891;247;24083;-78
2023/05/24 01:34:58;;;;;;;14.27;7.37;;;15.60;99.90;15.10;100180;;;;572151;247;24104;-78
2023/05/24 01:37:27;;;;;;;14.77;7.50;;;15.70;99.90;15.10;100182;;;;580720;247;24088;-77
2023/05/24 01:39:58;;;;;;;12.57;7.27;;;15.50;99.90;15.10;100176;;;;572210;247;24092;-79
2023/05/24 01:42:32;;;;;;;10.53;5.83;;;15.60;99.90;15.10;100177;;;;571754;247;24123;-77
2023/05/24 01:45:44;;;;;;;15.43;7.73;;;16.20;99.90;15.10;100189;;;;571720;247;24186;-77
2023/05/24 01:48:29;;;;;;;10.70;6.70;;;15.60;99.90;15.10;100186;;;;572375;247;24138;-78
2023/05/24 01:50:58;;;;;;;12.03;6.50;;;15.70;99.90;15.10;100192;;;;575170;246;24080;-78
2023/05/24 01:53:26;;;;;;;11.03;6.97;;;15.70;99.90;15.10;100194;;;;579872;247;24119;-77
2023/05/24 01:55:54;;;;;;;10.53;6.37;;;15.40;99.90;15.10;100187;;;;580306;247;24145;-79
2023/05/24 01:58:22;;;;;;;12.03;6.80;;;15.80;99.90;15.10;100188;;;;579517;247;24156;-78
2023/05/24 02:00:50;;;;;;;11.53;6.53;;;15.50;99.90;15.10;100204;;;;571138;247;24166;-79
2023/05/24 02:03:18;;;;;;;13.63;6.50;;;15.70;99.90;15.10;100204;;;;580023;247;24083;-79
2023/05/24 02:05:50;;;;;;;17.37;8.00;;;15.70;99.90;15.10;100218;;;;580487;247;24087;-77
2023/05/24 02:08:15;;;;;;;14.60;8.80;;;15.70;99.90;15.10;100220;;;;575423;243;35269;-80
2023/05/24 02:10:43;;;;;;;13.20;7.00;;;15.70;99.90;15.00;100223;;;;571899;247;24223;-80
2023/05/24 02:13:12;;;;;;;11.20;7.07;;;15.70;99.90;15.00;100237;;;;571786;247;24087;-77
2023/05/24 02:15:40;;;;;;;12.60;7.47;;;15.70;99.90;15.00;100225;;;;571869;247;24090;-79
2023/05/24 02:18:10;;;;;;;11.47;6.67;;;15.70;99.90;15.00;100230;;;;571874;247;24082;-80
2023/05/24 02:20:37;;;;;;;13.37;8.03;;;15.70;99.90;15.00;100235;;;;571896;247;24082;-78
2023/05/24 02:23:05;;;;;;;10.90;7.17;;;15.50;99.90;15.00;100217;;;;571840;247;24142;-78
2023/05/24 02:25:34;;;;;;;12.33;7.57;;;15.60;99.90;15.00;100226;;;;573382;246;24093;-78
2023/05/24 02:28:02;;;;;;;12.80;6.97;;;15.60;99.90;15.00;100219;;;;573323;246;24209;-79
2023/05/24 02:30:31;;;;;;;9.90;6.37;;;15.60;99.90;15.00;100232;;;;572937;246;24160;-79
2023/05/24 02:32:59;;;;;;;18.70;8.33;;;15.60;99.90;15.00;100223;;;;572916;246;24275;-79
2023/05/24 02:35:27;;;;;;;18.23;8.33;;;15.80;99.90;14.90;100222;;;;572701;246;24093;-80
2023/05/24 02:37:57;;;;;;;17.20;8.23;;;15.90;99.90;14.90;100215;;;;581146;242;24138;-78
2023/05/24 02:40:23;;;;;;;20.60;8.83;;;15.60;99.90;14.90;100207;;;;572180;246;24180;-79
2023/05/24 02:42:51;;;;;;;12.43;8.80;;;15.80;99.90;14.90;100212;;;;567649;247;35298;-79
2023/05/24 02:45:19;;;;;;;12.17;8.10;;;15.50;99.90;14.90;100215;;;;572182;247;24153;-79
2023/05/24 02:47:47;;;;;;;14.97;8.40;;;15.30;99.90;14.90;100215;;;;572075;247;24120;-79
2023/05/24 02:50:15;;;;;;;21.37;10.23;;;15.10;99.90;14.90;100207;;;;567176;247;35320;-79
2023/05/24 02:52:43;;;;;;;14.00;8.77;;;15.40;99.90;14.90;100206;;;;572044;247;24094;-80
2023/05/24 02:55:11;;;;;;;8.63;6.87;;;15.80;99.90;14.90;100214;;;;572255;247;24080;-78
2023/05/24 02:57:40;;;;;;;18.33;7.97;;;16.50;99.90;15.00;100214;;;;572118;247;24135;-79
2023/05/24 03:00:11;;;;;;;20.93;8.47;;;15.60;99.90;15.00;100211;;;;572110;247;24264;-79
2023/05/24 03:02:37;;;;;;;21.87;8.57;;;15.50;99.90;15.00;100210;;;;572042;247;24083;-78
2023/05/24 03:05:06;;;;;;;20.67;8.83;;;15.60;99.90;15.10;100214;;;;572153;247;24124;-79
2023/05/24 03:07:35;;;;;;;11.83;7.13;;;15.60;99.90;15.10;100210;;;;571851;247;24123;-79
2023/05/24 03:10:01;;;;;;;26.33;10.15;;;15.80;99.90;15.10;100207;;;;566647;247;35348;-78
2023/05/24 03:12:29;;;;;;;19.83;8.10;;;15.90;99.90;15.10;100205;;;;571944;247;24126;-79
2023/05/24 03:14:56;;;;;;;21.23;7.87;;;16.00;99.90;15.20;100206;;;;571727;242;24089;-78
2023/05/24 03:17:25;;;;;;;15.23;8.73;;;16.20;99.90;15.20;100212;;;;571799;247;24146;-79
2023/05/24 03:19:53;;;;;;;12.30;6.30;;;15.90;99.90;15.30;100217;;;;571851;247;24098;-79
2023/05/24 03:22:22;;;;;;;9.43;6.07;;;15.90;99.90;15.30;100217;;;;571794;247;24172;-80
2023/05/24 03:24:50;;;;;;;10.20;5.73;;;16.30;99.90;15.30;100220;;;;571925;247;24088;-80
2023/05/24 03:27:18;;;;;;;11.37;5.37;;;16.00;99.90;15.40;100222;;;;571851;247;24199;-79
2023/05/24 03:29:46;;;;;;;11.53;6.83;;;15.90;99.90;15.40;100221;;;;572201;247;24135;-78
2023/05/24 03:32:14;;;;;;;11.87;6.33;;;15.90;99.90;15.40;100217;;;;572242;247;24086;-79
2023/05/24 03:34:42;;;;;;;12.30;6.17;;;16.70;99.90;15.50;100220;;;;572154;247;24096;-79
2023/05/24 03:37:10;;;;;;;12.87;6.63;;;16.00;99.90;15.50;100219;;;;573617;246;24097;-79
2023/05/24 03:39:38;;;;;;;15.87;6.90;;;16.20;99.90;15.50;100219;;;;581638;242;24141;-78
2023/05/24 03:42:06;;;;;;;10.53;6.13;;;16.20;99.90;15.60;100220;;;;572799;246;24120;-79
2023/05/24 03:44:34;;;;;;;10.50;5.23;;;16.20;99.90;15.60;100223;;;;581354;242;24142;-79
2023/05/24 03:47:03;;;;;;;14.63;6.23;;;16.20;99.90;15.60;100222;;;;572340;246;24130;-79
2023/05/24 03:49:31;;;;;;;13.80;6.80;;;16.20;99.90;15.60;100221;;;;572368;246;24072;-78
2023/05/24 03:52:00;;;;;;;11.37;6.37;;;16.20;99.90;15.60;100217;;;;572271;246;24087;-79
2023/05/24 03:54:29;;;;;;;9.90;5.57;;;16.20;99.90;15.60;100215;;;;572255;247;24104;-79
2023/05/24 03:56:57;;;;;;;12.37;6.30;;;16.20;99.90;15.60;100220;;;;572073;242;24146;-78
2023/05/24 03:59:25;;;;;;;10.03;6.23;;;16.30;99.90;15.60;100220;;;;571932;247;24134;-78
2023/05/24 04:01:55;;;;;;;14.90;6.70;;;16.20;99.90;15.60;100216;;;;572521;247;24119;-78
2023/05/24 04:04:22;;;;;;;11.57;6.50;;;16.20;99.90;15.60;100222;;;;572330;247;24080;-78
2023/05/24 04:06:52;;;;;;;7.03;4.93;;;16.20;99.90;15.60;100214;;;;572486;247;24084;-78
2023/05/24 04:09:19;;;;;;;10.93;5.50;;;16.10;99.90;15.70;100212;;;;580757;247;24101;-79
2023/05/24 04:11:47;;;;;;;13.10;5.53;;;16.30;99.90;15.70;100212;;;;570087;247;24115;-78
2023/05/24 04:14:16;;;;;;;8.63;5.33;;;16.30;99.90;15.70;100217;;;;571857;247;24098;-80
2023/05/24 04:16:44;;;;;;;9.83;5.63;;;16.60;99.90;15.80;100223;;;;569747;247;24099;-78
2023/05/24 04:19:12;;;;;;;16.70;4.97;;;16.40;99.90;15.80;100228;;;;571868;247;24094;-77
2023/05/24 04:21:40;;;;;;;11.87;5.20;;;16.40;99.90;15.90;100223;;;;571803;247;24101;-79
2023/05/24 04:24:09;;;;;;;8.17;4.93;;;16.50;99.90;15.90;100219;;;;571943;247;24076;-80
2023/05/24 04:26:38;;;;;;;10.23;5.33;;;16.20;99.90;15.90;100227;;;;571878;247;24200;-79
2023/05/24 04:29:06;;;;;;;12.40;5.63;;;16.40;99.90;16.00;100229;;;;572223;247;24119;-79
2023/05/24 04:31:33;;;;;;;10.80;4.83;;;16.80;99.90;16.10;100232;;;;572178;247;24064;-79
2023/05/24 04:34:01;;;;;;;12.80;5.73;;;16.80;99.90;16.10;100232;;;;572067;247;24083;-78
2023/05/24 04:36:32;;;;;;;13.03;6.07;;;16.70;99.90;16.10;100235;;;;572145;247;24113;-78
2023/05/24 04:39:02;;;;;;;12.83;5.47;;;16.70;99.90;16.20;100239;;;;572140;247;24098;-80
2023/05/24 04:41:30;;;;;;;17.37;5.63;;;16.80;99.90;16.20;100247;;;;580472;247;24127;-79
2023/05/24 04:43:54;;;;;;;13.73;6.17;;;17.00;99.90;16.20;100251;;;;571627;247;24095;-78
2023/05/24 04:46:22;;;;;;;12.07;5.60;;;16.70;99.90;16.30;100244;;;;571785;247;24183;-79
2023/05/24 04:48:51;;;;;;;12.80;6.17;;;16.90;99.90;16.30;100251;;;;573335;246;24089;-80
2023/05/24 04:51:19;;;;;;;12.07;5.73;;;16.60;99.90;16.30;100257;;;;573212;246;24106;-78
2023/05/24 04:53:50;;;;;;;10.03;5.67;;;16.20;99.90;16.30;100260;;;;571650;246;24156;-79
2023/05/24 04:56:15;;;;;;;14.07;6.80;;;16.80;99.90;16.30;100263;;;;572593;246;24143;-79
2023/05/24 04:58:43;;;;;;;16.33;5.90;;;16.50;99.90;16.30;100257;;;;572345;246;24086;-79
2023/05/24 05:01:12;;;;;;;8.73;4.97;;;17.20;99.90;16.40;100259;;;;572376;246;24080;-78
2023/05/24 05:03:40;;;;;;;11.53;5.93;;;17.00;99.90;16.40;100260;;;;572606;246;24079;-78
2023/05/24 05:06:08;;;;;;;10.77;5.97;;;16.90;99.90;16.40;100258;;;;572453;247;24080;-78
2023/05/24 05:08:36;;;;;;;14.80;5.80;;;17.10;99.90;16.50;100272;;;;572453;247;24110;-79
2023/05/24 05:11:04;;;;;;;8.60;5.23;;;17.00;99.90;16.50;100266;;;;580969;242;24141;-78
2023/05/24 05:13:33;;;;;;;16.87;6.40;;;17.50;99.90;16.50;100271;;;;572135;247;24160;-77
2023/05/24 05:16:00;;;;;;;9.00;5.17;;;17.50;99.90;16.50;100273;;;;572053;247;24110;-77
2023/05/24 05:18:28;;;;;;;13.80;5.93;;;16.80;99.90;16.50;100283;;;;570178;247;24095;-78
2023/05/24 05:20:57;;;;;;;8.53;5.20;;;17.40;99.90;16.60;100274;;;;572247;247;24091;-78
2023/05/24 05:23:25;;;;;;;9.80;5.40;;;17.10;99.90;16.60;100282;;;;572180;247;24136;-79
2023/05/24 05:25:53;;;;;;;17.57;7.13;;;17.20;99.90;16.60;100287;;;;571859;242;24154;-78
2023/05/24 05:28:22;;;;;;;11.97;5.77;;;17.20;99.90;16.60;100284;;;;571991;247;24098;-78
2023/05/24 05:30:51;;;;;;;11.47;6.10;;;17.20;99.90;16.60;100288;;;;571852;247;24218;-78
2023/05/24 05:33:20;;;;;;;10.00;6.57;;;17.20;99.90;16.60;100288;;;;572184;247;24097;-79
2023/05/24 05:35:47;;;;;;;9.50;5.53;;;17.00;99.90;16.60;100292;;;;572279;247;24070;-78
2023/05/24 05:38:15;;;;;;;6.77;4.70;;;18.10;99.90;16.60;100299;;;;572262;247;24120;-78
2023/05/24 05:40:43;;;;;;;15.17;6.50;;;17.30;99.90;16.60;100307;;;;572193;247;24065;-79
2023/05/24 05:43:11;;;;;;;10.00;5.27;;;17.40;99.90;16.60;100306;;;;580625;247;24105;-78
2023/05/24 05:45:40;;;;;;;32.23;5.73;;;17.10;99.90;16.60;100308;;;;571954;247;24142;-78
2023/05/24 05:48:08;;;;;;;10.33;5.70;;;16.90;99.90;16.50;100314;;;;571927;247;24111;-78
2023/05/24 05:50:36;;;;;;;13.33;6.60;;;16.60;99.90;16.50;100314;;;;571763;247;24103;-79
2023/05/24 05:53:04;;;;;;;13.77;6.27;;;16.90;99.90;16.50;100316;;;;571972;247;24099;-79
2023/05/24 05:55:32;;;;;;;14.80;6.67;;;17.10;99.90;16.50;100323;;;;571774;247;24067;-79
2023/05/24 05:58:01;;;;;;;8.83;5.50;;;17.10;99.90;16.50;100324;;;;571893;247;24146;-79
2023/05/24 06:00:29;;;;;;;8.97;6.10;;;17.10;99.90;16.60;100325;;;;573612;246;24098;-78
2023/05/24 06:02:57;;;;;;;13.00;6.40;;;16.90;99.90;16.60;100333;;;;573030;246;24110;-79
2023/05/24 06:05:25;;;;;;;13.37;7.07;;;17.30;99.90;16.70;100331;;;;573386;246;24071;-79
2023/05/24 06:07:53;;;;;;;18.70;8.33;;;17.70;99.90;16.90;100325;;;;573337;246;24170;-79
2023/05/24 06:10:21;;;;;;;14.60;7.70;;;17.30;99.90;17.00;100331;;;;573034;246;24107;-79
2023/05/24 06:12:49;;;;;;;14.97;6.87;;;17.60;99.90;17.20;100337;;;;581336;246;24151;-79
2023/05/24 06:15:21;;;;;;;14.07;7.90;;;18.00;99.90;17.50;100349;;;;572511;246;24076;-79
2023/05/24 06:17:46;;;;;;;11.90;6.20;;;18.10;99.90;17.90;100343;;;;580784;242;24078;-78
2023/05/24 06:20:15;;;;;;;16.57;6.77;;;18.60;99.90;18.20;100347;;;;571865;247;24137;-78
2023/05/24 06:22:42;;;;;;;14.87;7.03;;;19.20;99.90;18.50;100352;;;;572147;247;23141;-79
2023/05/24 06:25:13;;;;;;;16.97;7.70;;;19.30;99.90;18.80;100351;;;;572080;247;24122;-79
2023/05/24 06:27:38;;;;;;;9.63;5.97;;;19.70;99.90;19.10;100361;;;;572030;247;23196;-79
2023/05/24 06:30:07;;;;;;;22.90;7.07;;;19.80;99.90;19.30;100355;;;;572074;247;24080;-79
2023/05/24 06:32:36;;;;;;;6.67;5.83;;;20.00;99.90;19.50;100364;;;;572501;247;24111;-80
2023/05/24 06:35:07;;;;;;;12.83;7.07;;;20.50;99.90;19.80;100374;;;;572316;247;24258;-78
2023/05/24 06:37:32;;;;;;;16.20;6.93;;;20.70;99.90;20.20;100377;;;;572353;247;25251;-79
2023/05/24 06:40:01;;;;;;;17.10;7.47;;;21.10;99.90;20.70;100380;;;;572191;247;24115;-78
2023/05/24 06:42:29;;;;;;;16.60;6.70;;;21.60;99.90;21.30;100380;;;;572211;247;24096;-78
2023/05/24 06:44:57;;;;;;;17.47;7.43;;;22.50;99.90;22.00;100377;;;;580618;247;24181;-79
2023/05/24 06:47:26;;;;;;;10.70;5.77;;;23.10;99.90;22.70;100386;;;;571870;247;24111;-79
2023/05/24 06:49:54;;;;;;;16.83;6.57;;;24.00;99.90;23.70;100402;;;;571753;247;24063;-78
2023/05/24 06:52:26;;;;;;;12.60;5.53;;;24.70;99.70;24.30;100397;;;;571896;247;24117;-79
2023/05/24 06:54:50;;;;;;;9.30;5.30;;;25.10;97.20;24.80;100399;;;;580171;243;23107;-79
2023/05/24 06:57:18;;;;;;;12.67;6.03;;;25.70;95.20;25.40;100404;;;;569918;244;26315;-79
2023/05/24 06:59:47;;;;;;;11.57;5.83;;;26.60;93.20;26.30;100403;;;;572181;247;23081;-79
2023/05/24 07:02:15;;;;;;;9.20;5.53;;;27.10;91.90;26.80;100409;;;;572316;247;23108;-79
2023/05/24 07:04:42;;;;;;;11.40;6.67;;;28.30;89.00;26.90;100411;;;;571878;247;23098;-79
2023/05/24 07:07:12;;;;;;;19.83;7.00;;;27.50;86.50;26.90;100413;;;;571703;247;23122;-79
2023/05/24 07:09:43;;;;;;;12.73;5.70;;;27.50;82.50;26.80;100419;;;;571924;247;25169;-79
2023/05/24 07:12:09;;;;;;;19.12;6.15;;;27.30;82.00;26.70;100416;;;;571081;246;23111;-79
2023/05/24 07:14:37;;;;;;;6.78;4.57;;;27.30;79.30;26.70;100408;;;;572822;246;24132;-77
2023/05/24 07:17:05;;;;;;;14.73;6.57;;;27.80;77.90;27.10;100416;;;;572934;246;23156;-79
2023/05/24 07:19:34;;;;;;;23.15;6.50;;;28.00;75.80;27.50;100423;;;;573102;246;24878;-79
2023/05/24 07:22:01;;;;;;;6.12;5.20;;;28.40;74.50;28.00;100424;;;;572625;246;23117;-78
2023/05/24 07:24:29;;;;;;;15.97;6.17;;;29.80;71.70;30.40;100420;;;;567424;246;35802;-79
2023/05/24 07:26:57;;;;;;;9.38;5.05;;;30.20;72.20;33.20;100431;;;;572562;246;23129;-79
2023/05/24 07:29:25;;;;;;;8.73;4.90;;;33.00;64.00;35.50;100435;;;;572126;247;23088;-79
2023/05/24 07:31:54;;;;;;;10.85;5.22;;;37.40;51.60;37.40;100444;;;;572166;247;23147;-79
2023/05/24 07:34:22;;;;;;;12.05;5.35;;;37.20;51.30;38.60;100440;;;;581309;247;23164;-79
2023/05/24 07:36:49;;;;;;;32.10;6.82;;;39.00;45.90;38.30;100451;;;;572785;247;23097;-80
2023/05/24 07:39:18;;;;;;;10.57;6.15;;;38.20;45.20;37.00;100454;;;;572840;247;23101;-79
2023/05/24 07:41:46;;;;;;;7.20;4.90;;;38.10;45.70;36.10;100451;;;;572853;247;23101;-79
2023/05/24 07:44:14;;;;;;;7.62;4.60;;;37.20;46.50;35.50;100449;;;;573337;247;23092;-79
2023/05/24 07:46:42;;;;;;;9.60;5.07;;;36.40;46.30;35.30;100455;;;;581451;247;23133;-78
2023/05/24 07:49:10;;;;;;;9.02;4.97;;;36.00;47.20;36.80;100452;;;;572539;247;23081;-78
2023/05/24 07:51:38;;;;;;;19.00;5.90;;;38.20;45.50;38.40;100452;;;;572402;247;23112;-78
2023/05/24 07:54:06;;;;;;;11.20;4.97;;;40.10;43.40;39.90;100449;;;;572236;247;23158;-79
2023/05/24 07:56:33;;;;;;;12.73;5.05;;;41.40;41.70;41.40;100450;;;;572033;247;23133;-80
2023/05/24 07:59:04;;;;;;;14.75;5.57;;;42.50;40.80;42.60;100460;;;;571832;247;24130;-78
2023/05/24 08:01:33;;;;;;;7.53;4.57;;;43.80;38.80;43.70;100471;;;;571956;247;23144;-80
2023/05/24 08:04:07;;;;;;;14.68;6.12;;;44.60;37.90;44.40;100470;;;;571761;247;23191;-80
2023/05/24 08:06:31;;;;;;;8.88;5.32;;;45.40;37.10;45.30;100474;;;;571777;247;23127;-81
2023/05/24 08:08:59;;;;;;;11.05;5.18;;;46.20;35.10;45.80;100480;;;;570869;247;23082;-79
2023/05/24 08:11:27;;;;;;;14.65;5.12;;;46.20;34.50;45.70;100479;;;;572202;247;23126;-80
2023/05/24 08:13:55;;;;;;;8.63;5.15;;;46.40;35.40;46.00;100486;;;;571961;247;23104;-80
2023/05/24 08:16:23;;;;;;;26.52;7.82;;;46.70;34.20;46.50;100489;;;;580482;247;23119;-80
2023/05/24 08:18:51;;;;;;;11.40;5.47;;;47.20;33.50;46.60;100491;;;;580788;247;23111;-82
2023/05/24 08:21:18;;;;;;;8.98;5.03;;;47.10;33.90;46.60;100492;;;;571806;244;23120;-80
2023/05/24 08:23:46;;;;;;;18.35;5.50;;;46.60;33.00;45.20;100504;;;;573246;246;23110;-80
2023/05/24 08:26:17;;;;;;;17.48;6.00;;;45.40;33.50;43.50;100502;;;;572905;246;23136;-80
2023/05/24 08:28:42;;;;;;;13.68;5.72;;;43.50;34.50;41.60;100507;;;;572412;246;23112;-79
2023/05/24 08:31:10;;;;;;;13.18;5.62;;;41.70;36.00;39.60;100505;;;;572682;246;23102;-79
2023/05/24 08:33:39;;;;;;;37.47;7.80;;;39.80;37.30;37.90;100504;;;;572221;246;23081;-79
2023/05/24 08:36:07;;;;;;;18.87;6.20;;;38.00;38.90;36.60;100502;;;;572601;246;23100;-80
2023/05/24 08:38:35;;;;;;;14.15;5.85;;;37.10;40.40;35.70;100505;;;;572360;246;23121;-79
2023/05/24 08:41:08;;;;;;;13.73;5.82;;;35.60;40.80;35.10;100505;;;;580810;247;23098;-79
2023/05/24 08:43:36;;;;;;;9.55;4.62;;;35.70;41.80;35.10;100515;;;;572139;247;23101;-79
2023/05/24 08:46:04;;;;;;;15.07;6.18;;;35.20;42.50;34.60;100514;;;;571921;247;23123;-79
2023/05/24 08:48:32;;;;;;;10.38;5.07;;;35.00;43.10;34.20;100513;;;;580767;247;23130;-78
2023/05/24 08:51:00;;;;;;;8.85;4.62;;;34.40;43.50;34.20;100512;;;;580741;247;23120;-79
2023/05/24 08:53:28;;;;;;;21.48;6.65;;;35.30;43.90;35.60;100520;;;;572548;247;23145;-78
2023/05/24 08:55:56;;;;;;;14.43;6.15;;;37.10;41.40;37.00;100526;;;;575803;247;35292;-78
2023/05/24 08:58:27;;;;;;;11.57;5.47;;;38.40;41.40;37.60;100518;;;;580650;246;23152;-80
2023/05/24 09:00:55;;;;;;;14.87;6.32;;;38.50;40.90;37.70;100523;;;;571984;247;23111;-79
2023/05/24 09:03:20;;;;;;;13.93;5.90;;;38.60;40.20;37.50;100524;;;;571949;247;23105;-79
2023/05/24 09:05:48;;;;;;;14.75;6.53;;;38.10;40.20;37.00;100526;;;;580639;247;23109;-79
2023/05/24 09:08:20;;;;;;;16.67;6.50;;;37.20;41.60;36.10;100517;;;;571808;247;24102;-78
2023/05/24 09:10:45;;;;;;;21.23;6.82;;;36.50;42.00;35.50;100524;;;;571505;247;23148;-79
2023/05/24 09:13:13;;;;;;;18.35;7.57;;;36.30;42.80;35.10;100525;;;;571880;247;23100;-79
2023/05/24 09:15:41;;;;;;;16.30;6.15;;;35.40;42.60;34.40;100527;;;;580512;242;23123;-79
2023/05/24 09:18:09;;;;;;;14.43;5.90;;;34.90;43.70;33.70;100528;;;;571648;247;23107;-79
2023/05/24 09:20:37;;;;;;;9.35;5.03;;;34.00;43.50;33.10;100533;;;;580577;242;23174;-80
2023/05/24 09:23:09;;;;;;;14.43;6.00;;;33.50;45.00;32.60;100532;;;;572180;247;24142;-78
2023/05/24 09:25:33;;;;;;;17.20;5.53;;;33.50;45.50;32.70;100528;;;;580075;247;23158;-78
2023/05/24 09:28:01;;;;;;;10.25;5.53;;;34.20;45.20;33.70;100529;;;;571779;247;23123;-78
2023/05/24 09:30:29;;;;;;;9.82;5.70;;;35.60;44.10;35.70;100529;;;;580186;247;24080;-78
2023/05/24 09:33:00;;;;;;;12.55;5.30;;;37.80;42.20;37.70;100532;;;;571862;244;23151;-79
2023/05/24 09:35:28;;;;;;;10.70;5.45;;;39.60;39.60;39.60;100535;;;;582275;246;23116;-79
2023/05/24 09:37:59;;;;;;;13.52;5.28;;;41.30;38.40;40.80;100531;;;;573226;246;23114;-79
2023/05/24 09:40:28;;;;;;;10.88;5.18;;;42.80;36.20;42.20;100532;;;;581664;246;23095;-79
2023/05/24 09:43:07;;;;;;;15.23;4.93;;;42.80;36.40;42.20;100543;;;;572813;242;23167;-79
2023/05/24 09:45:32;;;;;;;15.63;5.62;;;43.40;36.50;40.90;100548;;;;581362;246;24148;-79
2023/05/24 09:48:00;;;;;;;8.48;5.53;;;42.60;36.70;40.60;100548;;;;572760;246;23093;-79
2023/05/24 09:50:29;;;;;;;10.27;5.30;;;41.60;36.60;40.20;100545;;;;580788;246;23110;-79
2023/05/24 09:52:56;;;;;;;14.25;5.18;;;41.50;37.30;40.80;100559;;;;572108;247;23144;-79
2023/05/24 09:55:24;;;;;;;12.40;5.53;;;42.30;36.40;41.30;100555;;;;572160;247;23141;-80
2023/05/24 09:57:52;;;;;;;5.72;4.82;;;42.30;36.70;42.10;100557;;;;574478;247;23145;-79
2023/05/24 10:00:23;;;;;;;14.10;5.35;;;43.10;36.30;42.90;100566;;;;579524;247;23144;-80
2023/05/24 10:03:01;;;;;;;14.13;5.75;;;44.60;35.10;43.50;100563;;;;580626;247;23089;-80
2023/05/24 10:05:28;;;;;;;43.03;6.43;;;45.20;34.20;43.80;100561;;;;580787;247;23086;-80
2023/05/24 10:07:59;;;;;;;8.38;5.80;;;45.30;35.00;43.80;100557;;;;581234;247;23112;-81
2023/05/24 10:10:31;;;;;;;9.45;5.00;;;45.30;34.90;44.30;100562;;;;572313;247;23074;-79
2023/05/24 10:12:56;;;;;;;11.48;5.80;;;45.50;34.40;43.90;100561;;;;571993;247;23123;-79
2023/05/24 10:15:24;;;;;;;11.63;6.28;;;45.40;34.80;43.40;100562;;;;580825;243;24125;-79
2023/05/24 10:17:55;;;;;;;12.18;5.35;;;45.00;34.90;42.80;100573;;;;572133;247;23121;-80
2023/05/24 10:20:19;;;;;;;27.33;6.12;;;43.70;35.60;41.90;100562;;;;580275;247;23142;-81
2023/05/24 10:22:47;;;;;;;26.30;6.75;;;43.60;36.10;41.20;100566;;;;572022;247;23119;-79
2023/05/24 10:25:25;;;;;;;11.30;5.60;;;42.80;36.30;40.40;100563;;;;580477;243;23129;-79
2023/05/24 10:27:52;;;;;;;31.35;6.93;;;41.90;36.80;39.60;100568;;;;572075;247;23096;-79
2023/05/24 10:30:41;;;;;;;15.05;5.50;;;41.00;37.50;39.00;100567;;;;580215;247;23096;-80
2023/05/24 10:33:09;;;;;;;31.62;6.55;;;39.70;39.40;38.20;100582;;;;580560;247;23124;-79
2023/05/24 10:35:41;;;;;;;11.45;5.40;;;38.80;39.40;37.50;100577;;;;580774;247;23086;-79
2023/05/24 10:38:07;;;;;;;7.30;5.55;;;37.50;41.80;36.20;100587;;;;580975;247;23129;-79
2023/05/24 10:40:35;;;;;;;9.38;5.32;;;36.20;41.50;35.00;100582;;;;572415;247;23117;-78
2023/05/24 10:43:08;;;;;;;5.53;4.87;;;34.50;43.40;33.60;100570;;;;572699;247;23125;-79
2023/05/24 10:45:35;;;;;;;33.05;7.25;;;33.00;45.20;32.40;100575;;;;581699;245;24144;-78
2023/05/24 10:48:12;;;;;;;10.65;5.65;;;31.80;47.00;31.50;100568;;;;573352;246;23087;-78
2023/05/24 10:50:43;;;;;;;10.88;4.87;;;31.10;48.30;30.20;100574;;;;573289;246;23103;-79
2023/05/24 10:53:13;;;;;;;31.40;6.90;;;29.70;50.70;29.20;100575;;;;575110;246;23104;-79
2023/05/24 10:56:03;;;;;;;22.50;6.60;;;28.70;51.50;28.30;100566;;;;580820;246;24095;-79
2023/05/24 10:59:01;;;;;;;8.35;4.97;;;28.20;55.10;27.40;100563;;;;572448;246;23108;-78
2023/05/24 11:01:30;;;;;;;15.82;5.65;;;27.00;54.40;26.80;100564;;;;572952;246;24129;-78
2023/05/24 11:04:07;;;;;;;9.57;5.28;;;26.80;59.60;26.30;100566;;;;580975;247;23157;-80
2023/05/24 11:07:06;;;;;;;7.47;4.57;;;26.20;58.50;25.80;100566;;;;572444;247;23103;-78
2023/05/24 11:09:31;;;;;;;8.53;5.37;;;25.50;61.70;25.40;100563;;;;573429;247;24079;-79
2023/05/24 11:12:08;;;;;;;14.83;5.27;;;25.40;57.00;25.00;100568;;;;581359;247;23121;-79